createdAt,value
2018-12-01T00:01:21.544Z,19.43
2018-12-01T00:03:51.621Z,20.23
2018-12-01T00:06:21.761Z,19.67
2018-12-01T00:08:51.780Z,20.53
2018-12-01T00:11:21.953Z,20.07
2018-12-01T00:13:52.318Z,19.03
2018-12-01T00:16:22.381Z,19.30
2018-12-01T00:18:52.412Z,19.73
2018-12-01T00:21:22.879Z,19.97
2018-12-01T00:23:53.060Z,19.47
2018-12-01T00:26:23.058Z,19.83
2018-12-01T00:28:53.065Z,20.73
2018-12-01T00:31:23.670Z,22.57
2018-12-01T00:33:53.728Z,22.33
2018-12-01T00:36:24.482Z,21.93
2018-12-01T00:38:56.214Z,20.67
2018-12-01T00:41:26.841Z,19.70
2018-12-01T00:43:57.367Z,20.83
2018-12-01T00:46:29.112Z,19.20
2018-12-01T00:49:00.238Z,21.30
2018-12-01T00:51:30.335Z,20.43
2018-12-01T00:54:00.829Z,20.93
2018-12-01T00:56:30.832Z,21.67
2018-12-01T00:59:01.511Z,22.30
2018-12-01T01:01:31.607Z,21.30
2018-12-01T01:04:02.242Z,22.93
2018-12-01T01:06:33.144Z,22.00
2018-12-01T01:09:03.671Z,23.53
2018-12-01T01:11:33.668Z,24.40
2018-12-01T01:14:04.177Z,24.40
2018-12-01T01:16:34.694Z,24.27
2018-12-01T01:19:05.171Z,24.07
2018-12-01T01:21:35.683Z,23.97
2018-12-01T01:24:06.196Z,25.53
2018-12-01T01:26:36.232Z,25.60
2018-12-01T01:29:06.996Z,25.50
2018-12-01T01:31:37.741Z,25.10
2018-12-01T01:34:07.839Z,25.73
2018-12-01T01:36:39.328Z,26.77
2018-12-01T01:39:09.880Z,25.47
2018-12-01T01:41:40.411Z,26.07
2018-12-01T01:44:10.927Z,28.30
2018-12-01T01:46:41.622Z,27.30
2018-12-01T01:49:12.223Z,28.13
2018-12-01T01:51:43.236Z,28.73
2018-12-01T01:54:13.859Z,28.83
2018-12-01T01:56:44.704Z,29.20
2018-12-01T01:59:15.248Z,29.77
2018-12-01T02:01:45.252Z,29.27
2018-12-01T02:04:15.757Z,29.97
2018-12-01T02:06:46.384Z,30.60
2018-12-01T02:09:17.237Z,29.97
2018-12-01T02:11:47.987Z,30.87
2018-12-01T02:14:18.548Z,32.00
2018-12-01T02:16:49.751Z,32.10
2018-12-01T02:19:20.465Z,31.73
2018-12-01T02:21:51.587Z,30.50
2018-12-01T02:24:22.247Z,31.90
2018-12-01T02:26:53.543Z,33.03
2018-12-01T02:29:24.076Z,33.00
2018-12-01T02:31:54.570Z,33.00
2018-12-01T02:34:25.067Z,31.97
2018-12-01T02:36:55.538Z,34.43
2018-12-01T02:39:26.936Z,33.30
2018-12-01T02:41:57.605Z,33.80
2018-12-01T02:44:39.052Z,33.57
2018-12-01T02:47:11.427Z,34.40
2018-12-01T02:49:42.119Z,34.37
2018-12-01T02:52:12.764Z,34.03
2018-12-01T02:54:42.775Z,33.17
2018-12-01T02:57:13.763Z,35.23
2018-12-01T02:59:44.296Z,35.67
2018-12-01T03:02:14.564Z,35.70
2018-12-01T03:04:45.912Z,35.57
2018-12-01T03:07:16.462Z,34.70
2018-12-01T03:09:47.084Z,35.00
2018-12-01T03:12:18.087Z,35.97
2018-12-01T03:14:48.592Z,35.60
2018-12-01T03:17:19.232Z,34.97
2018-12-01T03:19:49.798Z,35.47
2018-12-01T03:22:20.675Z,36.57
2018-12-01T03:24:51.696Z,36.17
2018-12-01T03:27:21.684Z,37.43
2018-12-01T03:29:52.843Z,36.50
2018-12-01T03:32:22.812Z,37.83
2018-12-01T03:34:53.611Z,38.60
2018-12-01T03:37:24.435Z,36.70
2018-12-01T03:39:55.327Z,36.13
2018-12-01T03:42:25.312Z,36.37
2018-12-01T03:44:55.378Z,36.50
2018-12-01T03:47:25.899Z,36.37
2018-12-01T03:49:56.420Z,35.83
2018-12-01T03:52:27.359Z,36.77
2018-12-01T03:54:58.017Z,36.77
2018-12-01T03:57:29.044Z,37.53
2018-12-01T03:59:59.555Z,36.13
2018-12-01T04:02:30.206Z,36.37
2018-12-01T04:05:00.352Z,37.40
2018-12-01T04:07:31.602Z,36.17
2018-12-01T04:10:02.843Z,38.03
2018-12-01T04:12:33.383Z,38.63
2018-12-01T04:15:03.853Z,37.23
2018-12-01T04:17:34.336Z,37.30
2018-12-01T04:20:04.459Z,37.10
2018-12-01T04:22:35.741Z,36.13
2018-12-01T04:25:07.043Z,36.67
2018-12-01T04:27:37.755Z,37.77
2018-12-01T04:30:39.281Z,38.60
2018-12-01T04:33:09.564Z,38.50
2018-12-01T04:35:39.775Z,38.40
2018-12-01T04:38:10.423Z,39.10
2018-12-01T04:40:41.123Z,38.00
2018-12-01T04:43:12.284Z,37.73
2018-12-01T04:45:42.292Z,38.43
2018-12-01T04:48:12.269Z,38.37
2018-12-01T04:50:42.839Z,39.37
2018-12-01T04:53:13.383Z,38.43
2018-12-01T04:55:44.495Z,38.60
2018-12-01T04:58:15.951Z,39.93
2018-12-01T05:00:45.996Z,41.83
2018-12-01T05:03:16.136Z,40.57
2018-12-01T05:05:46.792Z,43.60
2018-12-01T05:08:17.379Z,44.13
2018-12-01T05:10:48.396Z,42.20
2018-12-01T05:13:18.415Z,44.03
2018-12-01T05:15:49.240Z,43.70
2018-12-01T05:18:19.761Z,45.13
2018-12-01T05:20:50.383Z,42.97
2018-12-01T05:23:20.756Z,43.90
2018-12-01T05:25:51.691Z,44.23
2018-12-01T05:28:22.519Z,42.97
2018-12-01T05:30:53.274Z,45.67
2018-12-01T05:33:23.861Z,44.67
2018-12-01T05:35:54.599Z,43.63
2018-12-01T05:38:26.030Z,43.50
2018-12-01T05:40:56.639Z,42.67
2018-12-01T05:43:27.360Z,43.27
2018-12-01T05:45:58.087Z,43.63
2018-12-01T05:48:29.016Z,42.13
2018-12-01T05:50:59.767Z,42.10
2018-12-01T05:53:30.270Z,42.27
2018-12-01T05:56:00.363Z,43.17
2018-12-01T05:58:30.900Z,41.13
2018-12-01T06:01:01.653Z,44.83
2018-12-01T06:03:31.800Z,44.90
2018-12-01T06:06:02.341Z,45.67
2018-12-01T06:08:33.769Z,43.63
2018-12-01T06:11:04.495Z,44.53
2018-12-01T06:13:35.551Z,43.37
2018-12-01T06:16:06.327Z,45.60
2018-12-01T06:18:37.019Z,43.43
2018-12-01T06:21:07.582Z,44.70
2018-12-01T06:23:37.921Z,42.60
2018-12-01T06:26:08.435Z,42.70
2018-12-01T06:28:39.161Z,43.67
2018-12-01T06:31:09.351Z,42.73
2018-12-01T06:33:39.897Z,42.30
2018-12-01T06:36:10.826Z,41.80
2018-12-01T06:38:41.297Z,41.70
2018-12-01T06:41:11.982Z,43.17
2018-12-01T06:43:42.961Z,44.67
2018-12-01T06:46:13.567Z,41.70
2018-12-01T06:48:44.240Z,42.47
2018-12-01T06:51:14.905Z,41.17
2018-12-01T06:53:44.888Z,42.57
2018-12-01T06:56:15.570Z,42.70
2018-12-01T06:58:47.212Z,42.00
2018-12-01T07:01:17.282Z,42.50
2018-12-01T07:03:48.379Z,43.60
2018-12-01T07:06:18.434Z,40.57
2018-12-01T07:08:49.071Z,41.00
2018-12-01T07:11:19.136Z,40.90
2018-12-01T07:13:50.401Z,40.83
2018-12-01T07:16:21.348Z,40.03
2018-12-01T07:19:03.148Z,41.23
2018-12-01T07:21:34.204Z,40.20
2018-12-01T07:24:05.234Z,39.10
2018-12-01T07:26:51.457Z,36.13
2018-12-01T07:29:22.395Z,36.67
2018-12-01T07:31:52.511Z,36.93
2018-12-01T07:34:23.555Z,35.17
2018-12-01T07:36:55.476Z,34.17
2018-12-01T07:39:26.526Z,32.73
2018-12-01T07:41:57.561Z,34.30
2018-12-01T07:44:28.963Z,32.57
2018-12-01T07:46:58.955Z,31.33
2018-12-01T07:49:29.329Z,33.10
2018-12-01T07:51:59.907Z,31.07
2018-12-01T07:54:29.887Z,30.57
2018-12-01T07:57:00.150Z,31.43
2018-12-01T07:59:30.189Z,30.37
2018-12-01T08:02:00.592Z,28.40
2018-12-01T08:04:30.659Z,30.33
2018-12-01T08:07:02.492Z,29.17
2018-12-01T08:09:32.895Z,29.03
2018-12-01T08:12:03.316Z,28.30
2018-12-01T08:14:33.421Z,28.77
2018-12-01T08:17:03.417Z,27.10
2018-12-01T08:19:34.152Z,28.40
2018-12-01T08:22:04.408Z,26.17
2018-12-01T08:24:34.488Z,27.07
2018-12-01T08:27:06.024Z,26.20
2018-12-01T08:29:36.603Z,26.70
2018-12-01T08:32:25.142Z,26.10
2018-12-01T08:34:55.241Z,25.50
2018-12-01T08:37:31.209Z,25.67
2018-12-01T08:40:01.740Z,25.17
2018-12-01T08:42:51.639Z,26.07
2018-12-01T08:45:25.331Z,24.30
2018-12-01T08:47:58.895Z,25.67
2018-12-01T08:50:33.351Z,23.77
2018-12-01T08:53:04.150Z,24.53
2018-12-01T08:55:53.336Z,23.90
2018-12-01T08:58:23.914Z,23.63
2018-12-01T09:00:53.912Z,22.43
2018-12-01T09:03:24.800Z,23.63
2018-12-01T09:06:06.582Z,22.83
2018-12-01T09:08:37.160Z,21.37
2018-12-01T09:11:07.308Z,22.47
2018-12-01T09:13:38.633Z,21.70
2018-12-01T09:16:09.086Z,22.80
2018-12-01T09:18:39.587Z,21.20
2018-12-01T09:21:10.267Z,21.30
2018-12-01T09:23:40.514Z,22.67
2018-12-01T09:26:19.917Z,22.60
2018-12-01T09:28:50.028Z,24.40
2018-12-01T09:31:21.083Z,22.90
2018-12-01T09:33:51.295Z,23.27
2018-12-01T09:36:42.773Z,23.50
2018-12-01T09:39:17.672Z,22.83
2018-12-01T09:41:48.584Z,23.80
2018-12-01T09:44:20.021Z,23.70
2018-12-01T09:46:51.144Z,23.40
2018-12-01T09:49:29.313Z,23.50
2018-12-01T09:52:00.840Z,22.00
2018-12-01T09:54:32.039Z,23.23
2018-12-01T09:57:02.198Z,22.03
2018-12-01T09:59:32.232Z,22.23
2018-12-01T10:02:02.255Z,23.60
2018-12-01T10:04:33.635Z,22.30
2018-12-01T10:07:03.708Z,20.90
2018-12-01T10:09:34.617Z,20.67
2018-12-01T10:12:05.239Z,22.70
2018-12-01T10:14:35.768Z,21.60
2018-12-01T10:17:06.223Z,21.33
2018-12-01T10:19:36.261Z,20.10
2018-12-01T10:22:06.299Z,22.43
2018-12-01T10:24:37.375Z,20.80
2018-12-01T10:27:08.367Z,20.43
2018-12-01T10:29:38.419Z,22.80
2018-12-01T10:32:08.768Z,21.00
2018-12-01T10:34:39.103Z,21.00
2018-12-01T10:37:09.647Z,21.60
2018-12-01T10:39:39.846Z,21.33
2018-12-01T10:42:10.461Z,19.97
2018-12-01T10:44:41.451Z,19.93
2018-12-01T10:47:13.888Z,19.37
2018-12-01T10:49:43.900Z,18.97
2018-12-01T10:52:14.083Z,19.93
2018-12-01T10:54:45.130Z,19.63
2018-12-01T10:57:15.444Z,17.90
2018-12-01T10:59:46.127Z,16.47
2018-12-01T11:02:21.387Z,17.43
2018-12-01T11:04:51.604Z,17.13
2018-12-01T11:07:24.155Z,16.63
2018-12-01T11:09:54.670Z,17.60
2018-12-01T11:12:24.867Z,16.80
2018-12-01T11:14:54.881Z,18.27
2018-12-01T11:17:25.114Z,15.43
2018-12-01T11:19:56.007Z,17.23
2018-12-01T11:22:26.417Z,16.17
2018-12-01T11:24:57.688Z,16.40
2018-12-01T11:27:29.023Z,16.40
2018-12-01T11:29:59.359Z,17.17
2018-12-01T11:32:29.551Z,16.07
2018-12-01T11:35:00.250Z,16.77
2018-12-01T11:37:32.688Z,16.47
2018-12-01T11:40:02.785Z,17.50
2018-12-01T11:42:33.152Z,16.57
2018-12-01T11:45:03.226Z,17.30
2018-12-01T11:47:33.299Z,15.77
2018-12-01T11:50:03.849Z,17.87
2018-12-01T11:52:33.848Z,16.70
2018-12-01T11:55:04.027Z,17.23
2018-12-01T11:57:35.219Z,17.83
2018-12-01T12:00:05.529Z,18.10
2018-12-01T12:02:35.987Z,17.73
2018-12-01T12:05:06.409Z,17.10
2018-12-01T12:07:46.876Z,18.00
2018-12-01T12:10:17.359Z,18.03
2018-12-01T12:12:48.720Z,18.83
2018-12-01T12:15:19.553Z,18.43
2018-12-01T12:17:53.753Z,16.93
2018-12-01T12:20:23.823Z,18.83
2018-12-01T12:22:53.964Z,18.80
2018-12-01T12:25:24.424Z,18.70
2018-12-01T12:27:55.208Z,18.13
2018-12-01T12:30:26.297Z,17.93
2018-12-01T12:32:57.133Z,17.23
2018-12-01T12:35:27.701Z,16.70
2018-12-01T12:37:57.675Z,16.87
2018-12-01T12:40:29.758Z,17.30
2018-12-01T12:43:00.735Z,16.23
2018-12-01T12:45:31.283Z,16.03
2018-12-01T12:48:01.320Z,16.63
2018-12-01T12:50:32.271Z,17.03
2018-12-01T12:53:02.705Z,16.67
2018-12-01T12:55:32.928Z,16.87
2018-12-01T12:58:04.032Z,16.87
2018-12-01T13:00:34.496Z,17.47
2018-12-01T13:03:09.672Z,16.07
2018-12-01T13:05:44.709Z,16.63
2018-12-01T13:08:16.135Z,15.77
2018-12-01T13:10:47.024Z,16.07
2018-12-01T13:13:17.711Z,16.50
2018-12-01T13:15:47.749Z,16.50
2018-12-01T13:18:17.783Z,16.90
2018-12-01T13:21:00.356Z,15.67
2018-12-01T13:23:32.159Z,16.30
2018-12-01T13:26:11.145Z,16.60
2018-12-01T13:28:43.423Z,17.13
2018-12-01T13:31:13.456Z,16.90
2018-12-01T13:33:45.418Z,17.07
2018-12-01T13:36:57.756Z,16.30
2018-12-01T13:39:29.071Z,16.40
2018-12-01T13:41:59.501Z,15.33
2018-12-01T13:44:29.631Z,14.80
2018-12-01T13:46:59.724Z,14.70
2018-12-01T13:49:29.803Z,14.57
2018-12-01T13:52:00.603Z,13.43
2018-12-01T13:54:30.691Z,14.27
2018-12-01T13:57:00.947Z,15.70
2018-12-01T13:59:31.176Z,14.80
2018-12-01T14:02:01.344Z,14.40
2018-12-01T14:04:31.348Z,14.53
2018-12-01T14:07:01.563Z,14.67
2018-12-01T14:09:31.960Z,15.67
2018-12-01T14:13:21.214Z,14.60
2018-12-01T14:15:51.805Z,14.37
2018-12-01T14:18:21.890Z,13.73
2018-12-01T14:20:52.176Z,14.37
2018-12-01T14:23:22.589Z,14.50
2018-12-01T14:25:52.702Z,14.80
2018-12-01T14:28:22.929Z,14.47
2018-12-01T14:30:53.487Z,14.30
2018-12-01T14:33:23.583Z,13.90
2018-12-01T14:35:53.584Z,14.00
2018-12-01T14:38:23.968Z,14.47
2018-12-01T14:40:54.012Z,13.17
2018-12-01T14:43:24.500Z,13.43
2018-12-01T14:45:54.792Z,14.20
2018-12-01T14:48:24.835Z,13.77
2018-12-01T14:50:55.907Z,12.93
2018-12-01T14:53:26.104Z,13.67
2018-12-01T14:55:56.251Z,14.33
2018-12-01T14:58:27.158Z,14.60
2018-12-01T15:00:57.847Z,14.10
2018-12-01T15:03:27.990Z,14.47
2018-12-01T15:05:58.937Z,13.43
2018-12-01T15:08:28.976Z,14.07
2018-12-01T15:10:59.191Z,14.27
2018-12-01T15:13:29.674Z,13.70
2018-12-01T15:16:00.223Z,13.40
2018-12-01T15:18:30.400Z,13.60
2018-12-01T15:21:01.060Z,13.23
2018-12-01T15:23:31.101Z,12.90
2018-12-01T15:26:01.431Z,13.13
2018-12-01T15:28:31.989Z,11.93
2018-12-01T15:31:02.742Z,12.43
2018-12-01T15:33:33.423Z,13.50
2018-12-01T15:36:03.918Z,12.97
2018-12-01T15:38:34.047Z,12.67
2018-12-01T15:41:04.688Z,13.63
2018-12-01T15:43:35.056Z,13.60
2018-12-01T15:46:05.592Z,12.93
2018-12-01T15:48:35.722Z,13.17
2018-12-01T15:51:07.847Z,12.70
2018-12-01T15:53:39.166Z,12.30
2018-12-01T15:56:09.408Z,12.83
2018-12-01T15:58:41.269Z,12.40
2018-12-01T16:01:11.453Z,12.67
2018-12-01T16:03:41.556Z,12.53
2018-12-01T16:06:12.380Z,12.30
2018-12-01T16:08:42.634Z,11.60
2018-12-01T16:11:12.704Z,12.03
2018-12-01T16:13:43.098Z,10.40
2018-12-01T16:16:13.139Z,10.23
2018-12-01T16:18:43.179Z,10.73
2018-12-01T16:21:13.226Z,10.03
2018-12-01T16:23:43.259Z,10.03
2018-12-01T16:26:13.343Z,9.07
2018-12-01T16:28:43.767Z,10.27
2018-12-01T16:31:19.696Z,10.00
2018-12-01T16:33:50.458Z,8.50
2018-12-01T16:36:20.627Z,9.60
2018-12-01T16:38:51.461Z,9.27
2018-12-01T16:41:24.691Z,10.03
2018-12-01T16:43:55.137Z,9.47
2018-12-01T16:46:25.333Z,9.90
2018-12-01T16:48:56.567Z,9.57
2018-12-01T16:51:26.655Z,8.40
2018-12-01T16:53:57.352Z,8.83
2018-12-01T16:56:27.391Z,8.93
2018-12-01T16:58:57.994Z,8.60
2018-12-01T17:01:36.110Z,9.03
2018-12-01T17:04:07.153Z,8.50
2018-12-01T17:06:37.836Z,8.13
2018-12-01T17:09:09.403Z,8.20
2018-12-01T17:11:45.351Z,8.27
2018-12-01T17:14:16.335Z,8.17
2018-12-01T17:16:47.204Z,8.07
2018-12-01T17:19:17.988Z,7.63
2018-12-01T17:21:48.468Z,7.40
2018-12-01T17:24:19.655Z,7.80
2018-12-01T17:26:49.713Z,7.73
2018-12-01T17:29:20.639Z,6.83
2018-12-01T17:31:51.452Z,7.77
2018-12-01T17:34:21.527Z,7.37
2018-12-01T17:36:51.609Z,7.77
2018-12-01T17:39:23.254Z,7.83
2018-12-01T17:41:53.829Z,7.37
2018-12-01T17:44:25.510Z,7.13
2018-12-01T17:46:56.241Z,7.27
2018-12-01T17:49:26.765Z,7.30
2018-12-01T17:51:56.791Z,6.93
2018-12-01T17:54:26.867Z,7.90
2018-12-01T17:56:57.139Z,7.30
2018-12-01T17:59:27.261Z,6.80
2018-12-01T18:01:57.337Z,7.30
2018-12-01T18:04:27.372Z,7.10
2018-12-01T18:06:57.648Z,6.80
2018-12-01T18:09:28.024Z,7.30
2018-12-01T18:11:58.008Z,52.67
2018-12-01T18:14:29.132Z,6.80
2018-12-01T18:17:00.192Z,6.37
2018-12-01T18:19:34.040Z,6.17
2018-12-01T18:22:06.424Z,6.70
2018-12-01T18:24:37.616Z,6.27
2018-12-01T18:27:10.615Z,6.77
2018-12-01T18:29:42.055Z,6.10
2018-12-01T18:32:17.445Z,6.13
2018-12-01T18:34:48.560Z,5.53
2018-12-01T18:37:19.913Z,6.27
2018-12-01T18:39:50.886Z,6.00
2018-12-01T18:42:20.888Z,6.43
2018-12-01T18:44:51.817Z,5.37
2018-12-01T18:47:23.038Z,5.80
2018-12-01T18:49:54.244Z,5.60
2018-12-01T18:52:24.300Z,5.70
2018-12-01T18:54:54.303Z,5.33
2018-12-01T18:57:25.035Z,5.10
2018-12-01T18:59:55.804Z,5.30
2018-12-01T19:02:25.891Z,5.50
2018-12-01T19:04:56.659Z,5.43
2018-12-01T19:07:26.931Z,4.70
2018-12-01T19:09:57.964Z,4.77
2018-12-01T19:12:27.956Z,4.60
2018-12-01T19:14:58.429Z,5.43
2018-12-01T19:17:29.136Z,5.17
2018-12-01T19:19:59.655Z,4.40
2018-12-01T19:22:31.240Z,4.70
2018-12-01T19:25:01.268Z,5.03
2018-12-01T19:27:31.939Z,4.43
2018-12-01T19:30:05.074Z,4.87
2018-12-01T19:32:33.045Z,4.77
2018-12-01T19:35:03.087Z,4.60
2018-12-01T19:37:33.055Z,5.00
2018-12-01T19:40:03.061Z,4.80
2018-12-01T19:42:33.068Z,5.13
2018-12-01T19:45:03.084Z,4.60
2018-12-01T19:47:33.116Z,4.93
2018-12-01T19:50:03.585Z,4.80
2018-12-01T19:52:33.569Z,4.70
2018-12-01T19:55:04.251Z,4.53
2018-12-01T19:57:35.311Z,4.50
2018-12-01T20:00:06.159Z,5.23
2018-12-01T20:02:36.158Z,6.07
2018-12-01T20:05:07.324Z,5.10
2018-12-01T20:07:37.419Z,42.03
2018-12-01T20:10:13.484Z,5.47
2018-12-01T20:12:45.019Z,5.43
2018-12-01T20:15:28.332Z,5.90
2018-12-01T20:17:58.640Z,5.63
2018-12-01T20:20:29.365Z,5.63
2018-12-01T20:23:00.890Z,5.47
2018-12-01T20:25:30.876Z,5.80
2018-12-01T20:28:01.280Z,5.40
2018-12-01T20:30:31.332Z,5.73
2018-12-01T20:33:01.416Z,5.10
2018-12-01T20:35:41.248Z,5.70
2018-12-01T20:38:19.702Z,5.17
2018-12-01T20:40:50.855Z,5.77
2018-12-01T20:43:20.864Z,5.00
2018-12-01T20:45:50.907Z,6.83
2018-12-01T20:48:21.025Z,5.00
2018-12-01T20:50:51.056Z,4.97
2018-12-01T20:53:22.336Z,5.17
2018-12-01T20:55:56.289Z,5.23
2018-12-01T20:58:29.437Z,5.53
2018-12-01T21:00:59.427Z,5.30
2018-12-01T21:03:30.283Z,5.33
2018-12-01T21:06:01.391Z,5.03
2018-12-01T21:08:31.861Z,5.70
2018-12-01T21:11:03.988Z,5.53
2018-12-01T21:13:34.588Z,5.63
2018-12-01T21:16:05.110Z,5.00
2018-12-01T21:18:35.592Z,4.60
2018-12-01T21:21:06.835Z,4.90
2018-12-01T21:23:36.875Z,5.33
2018-12-01T21:26:06.935Z,4.83
2018-12-01T21:28:37.296Z,5.03
2018-12-01T21:31:08.689Z,5.37
2018-12-01T21:33:39.217Z,5.43
2018-12-01T21:36:10.208Z,4.83
2018-12-01T21:38:40.687Z,5.07
2018-12-01T21:41:10.713Z,4.73
2018-12-01T21:43:41.612Z,5.50
2018-12-01T21:46:11.657Z,5.00
2018-12-01T21:48:41.673Z,5.00
2018-12-01T21:51:12.288Z,4.90
2018-12-01T21:53:42.464Z,5.50
2018-12-01T21:56:12.488Z,5.20
2018-12-01T21:58:42.999Z,5.10
2018-12-01T22:01:13.652Z,4.67
2018-12-01T22:03:44.684Z,5.20
2018-12-01T22:06:15.400Z,4.83
2018-12-01T22:08:46.114Z,4.60
2018-12-01T22:11:17.176Z,4.40
2018-12-01T22:13:48.127Z,4.20
2018-12-01T22:16:19.122Z,4.70
2018-12-01T22:18:49.756Z,4.80
2018-12-01T22:21:20.704Z,5.10
2018-12-01T22:23:52.000Z,5.10
2018-12-01T22:26:22.161Z,4.77
2018-12-01T22:28:52.745Z,5.07
2018-12-01T22:31:23.832Z,4.77
2018-12-01T22:33:54.335Z,5.40
2018-12-01T22:36:24.320Z,4.70
2018-12-01T22:38:54.728Z,5.50
2018-12-01T22:41:24.739Z,5.60
2018-12-01T22:43:54.731Z,5.20
2018-12-01T22:46:24.831Z,5.87
2018-12-01T22:48:55.508Z,6.07
2018-12-01T22:51:25.471Z,5.90
2018-12-01T22:53:56.071Z,6.53
2018-12-01T22:56:28.835Z,7.47
2018-12-01T22:58:56.803Z,7.10
2018-12-01T23:01:26.936Z,7.23
2018-12-01T23:03:57.098Z,8.33
2018-12-01T23:06:27.184Z,8.70
2018-12-01T23:08:58.045Z,8.77
2018-12-01T23:11:28.570Z,9.00
2018-12-01T23:13:58.851Z,10.07
2018-12-01T23:16:28.845Z,9.93
2018-12-01T23:18:59.332Z,10.67
2018-12-01T23:21:30.675Z,10.33
2018-12-01T23:24:01.135Z,10.40
2018-12-01T23:26:31.545Z,11.00
2018-12-01T23:29:02.356Z,9.77
2018-12-01T23:31:32.908Z,11.70
2018-12-01T23:34:02.936Z,10.60
2018-12-01T23:36:32.981Z,11.33
2018-12-01T23:39:04.539Z,10.60
2018-12-01T23:41:34.580Z,11.10
2018-12-01T23:44:05.273Z,10.97
2018-12-01T23:46:35.795Z,11.60
2018-12-01T23:49:05.887Z,11.70
2018-12-01T23:51:36.158Z,12.40
2018-12-01T23:54:06.769Z,13.90
2018-12-01T23:56:37.220Z,12.73
2018-12-01T23:59:07.524Z,13.70
